sensor_id;sensor_type;location;lat;lon;timestamp;pressure;altitude;pressure_sealevel;temperature;humidity
57668;BME280;43499;52.366;12.912;2022-11-20T00:00:16;100882.06;;;-1.56;100.00
57668;BME280;43499;52.366;12.912;2022-11-20T00:01:20;100885.59;;;-1.56;100.00
57668;BME280;43499;52.366;12.912;2022-11-20T00:02:21;100891.84;;;-1.53;100.00
57668;BME280;43499;52.366;12.912;2022-11-20T00:03:22;100879.91;;;-1.66;100.00
57668;BME280;43499;52.366;12.912;2022-11-20T00:04:23;100866.44;;;-1.71;100.00
57668;BME280;43499;52.366;12.912;2022-11-20T00:05:24;100893.31;;;-1.56;100.00
57668;BME280;43499;52.366;12.912;2022-11-20T00:06:27;100874.03;;;-1.65;100.00
57668;BME280;43499;52.366;12.912;2022-11-20T00:07:28;100869.00;;;-1.71;100.00
57668;BME280;43499;52.366;12.912;2022-11-20T00:08:29;100878.81;;;-1.68;100.00
57668;BME280;43499;52.366;12.912;2022-11-20T00:09:30;100873.66;;;-1.68;100.00
57668;BME280;43499;52.366;12.912;2022-11-20T00:10:31;100882.19;;;-1.62;100.00
57668;BME280;43499;52.366;12.912;2022-11-20T00:11:32;100881.59;;;-1.66;100.00
57668;BME280;43499;52.366;12.912;2022-11-20T00:12:33;100887.53;;;-1.60;100.00
57668;BME280;43499;52.366;12.912;2022-11-20T00:13:34;100880.84;;;-1.65;100.00
57668;BME280;43499;52.366;12.912;2022-11-20T00:14:35;100892.81;;;-1.66;100.00
57668;BME280;43499;52.366;12.912;2022-11-20T00:15:36;100874.16;;;-1.71;100.00
57668;BME280;43499;52.366;12.912;2022-11-20T00:16:37;100886.31;;;-1.69;100.00
57668;BME280;43499;52.366;12.912;2022-11-20T00:17:38;100877.16;;;-1.67;100.00
57668;BME280;43499;52.366;12.912;2022-11-20T00:18:39;100890.44;;;-1.64;100.00
57668;BME280;43499;52.366;12.912;2022-11-20T00:19:40;100869.94;;;-1.70;100.00
57668;BME280;43499;52.366;12.912;2022-11-20T00:20:41;100886.63;;;-1.61;100.00
57668;BME280;43499;52.366;12.912;2022-11-20T00:21:42;100895.06;;;-1.62;100.00
57668;BME280;43499;52.366;12.912;2022-11-20T00:22:43;100837.13;;;-1.91;100.00
57668;BME280;43499;52.366;12.912;2022-11-20T00:23:45;100860.06;;;-1.80;100.00
57668;BME280;43499;52.366;12.912;2022-11-20T00:24:46;100892.31;;;-1.63;100.00
57668;BME280;43499;52.366;12.912;2022-11-20T00:25:47;100878.09;;;-1.67;100.00
57668;BME280;43499;52.366;12.912;2022-11-20T00:26:48;100896.31;;;-1.65;100.00
57668;BME280;43499;52.366;12.912;2022-11-20T00:27:50;100902.38;;;-1.65;100.00
57668;BME280;43499;52.366;12.912;2022-11-20T00:29:01;100897.75;;;-1.67;100.00
57668;BME280;43499;52.366;12.912;2022-11-20T00:30:03;100887.28;;;-1.69;100.00
57668;BME280;43499;52.366;12.912;2022-11-20T00:31:09;100885.72;;;-1.74;100.00
57668;BME280;43499;52.366;12.912;2022-11-20T00:32:10;100855.16;;;-1.91;100.00
57668;BME280;43499;52.366;12.912;2022-11-20T00:33:11;100868.09;;;-1.84;100.00
57668;BME280;43499;52.366;12.912;2022-11-20T00:34:12;100880.38;;;-1.76;100.00
57668;BME280;43499;52.366;12.912;2022-11-20T00:35:13;100886.03;;;-1.78;100.00
57668;BME280;43499;52.366;12.912;2022-11-20T00:36:20;100861.44;;;-1.89;100.00
57668;BME280;43499;52.366;12.912;2022-11-20T00:37:21;100872.75;;;-1.81;100.00
57668;BME280;43499;52.366;12.912;2022-11-20T00:38:22;100895.50;;;-1.72;100.00
57668;BME280;43499;52.366;12.912;2022-11-20T00:39:23;100859.78;;;-1.89;100.00
57668;BME280;43499;52.366;12.912;2022-11-20T00:40:24;100897.16;;;-1.72;100.00
57668;BME280;43499;52.366;12.912;2022-11-20T00:41:27;100888.81;;;-1.77;100.00
57668;BME280;43499;52.366;12.912;2022-11-20T00:42:28;100884.50;;;-1.83;100.00
57668;BME280;43499;52.366;12.912;2022-11-20T00:43:29;100883.06;;;-1.81;100.00
57668;BME280;43499;52.366;12.912;2022-11-20T00:44:30;100888.00;;;-1.83;100.00
57668;BME280;43499;52.366;12.912;2022-11-20T00:45:31;100881.00;;;-1.84;100.00
57668;BME280;43499;52.366;12.912;2022-11-20T00:46:32;100896.69;;;-1.82;100.00
57668;BME280;43499;52.366;12.912;2022-11-20T00:47:34;100890.56;;;-1.83;100.00
57668;BME280;43499;52.366;12.912;2022-11-20T00:48:35;100888.72;;;-1.84;100.00
57668;BME280;43499;52.366;12.912;2022-11-20T00:49:36;100896.88;;;-1.81;100.00
57668;BME280;43499;52.366;12.912;2022-11-20T00:50:37;100879.06;;;-1.92;100.00
57668;BME280;43499;52.366;12.912;2022-11-20T00:51:38;100887.09;;;-1.83;100.00
57668;BME280;43499;52.366;12.912;2022-11-20T00:52:39;100895.53;;;-1.84;100.00
57668;BME280;43499;52.366;12.912;2022-11-20T00:53:40;100881.88;;;-1.91;100.00
57668;BME280;43499;52.366;12.912;2022-11-20T00:54:42;100890.69;;;-1.89;100.00
57668;BME280;43499;52.366;12.912;2022-11-20T00:55:43;100884.56;;;-1.96;100.00
57668;BME280;43499;52.366;12.912;2022-11-20T00:56:44;100868.06;;;-2.04;100.00
57668;BME280;43499;52.366;12.912;2022-11-20T00:57:45;100893.59;;;-1.93;100.00
57668;BME280;43499;52.366;12.912;2022-11-20T00:58:48;100890.09;;;-1.93;100.00
57668;BME280;43499;52.366;12.912;2022-11-20T00:59:49;100882.28;;;-2.00;100.00
57668;BME280;43499;52.366;12.912;2022-11-20T01:00:50;100893.00;;;-1.97;100.00
57668;BME280;43499;52.366;12.912;2022-11-20T01:01:51;100895.16;;;-2.00;100.00
57668;BME280;43499;52.366;12.912;2022-11-20T01:02:52;100876.41;;;-2.12;100.00
57668;BME280;43499;52.366;12.912;2022-11-20T01:03:58;100890.31;;;-2.05;100.00
57668;BME280;43499;52.366;12.912;2022-11-20T01:04:59;100885.38;;;-2.03;100.00
57668;BME280;43499;52.366;12.912;2022-11-20T01:06:06;100882.19;;;-2.08;100.00
57668;BME280;43499;52.366;12.912;2022-11-20T01:07:07;100883.13;;;-2.07;100.00
57668;BME280;43499;52.366;12.912;2022-11-20T01:08:08;100884.53;;;-2.09;100.00
57668;BME280;43499;52.366;12.912;2022-11-20T01:09:12;100886.22;;;-2.10;100.00
57668;BME280;43499;52.366;12.912;2022-11-20T01:10:13;100879.72;;;-2.13;100.00
57668;BME280;43499;52.366;12.912;2022-11-20T01:11:20;100887.47;;;-2.13;100.00
57668;BME280;43499;52.366;12.912;2022-11-20T01:12:21;100883.41;;;-2.11;100.00
57668;BME280;43499;52.366;12.912;2022-11-20T01:13:22;100872.50;;;-2.16;100.00
57668;BME280;43499;52.366;12.912;2022-11-20T01:14:39;100883.94;;;-2.14;100.00
57668;BME280;43499;52.366;12.912;2022-11-20T01:15:40;100882.41;;;-2.19;100.00
57668;BME280;43499;52.366;12.912;2022-11-20T01:16:44;100887.34;;;-2.21;100.00
57668;BME280;43499;52.366;12.912;2022-11-20T01:17:45;100886.00;;;-2.24;100.00
57668;BME280;43499;52.366;12.912;2022-11-20T01:18:48;100862.88;;;-2.37;100.00
57668;BME280;43499;52.366;12.912;2022-11-20T01:19:50;100860.47;;;-2.36;100.00
57668;BME280;43499;52.366;12.912;2022-11-20T01:20:51;100866.34;;;-2.37;100.00
57668;BME280;43499;52.366;12.912;2022-11-20T01:21:53;100883.00;;;-2.27;100.00
57668;BME280;43499;52.366;12.912;2022-11-20T01:22:54;100865.22;;;-2.39;100.00
57668;BME280;43499;52.366;12.912;2022-11-20T01:23:56;100893.53;;;-2.26;100.00
57668;BME280;43499;52.366;12.912;2022-11-20T01:24:57;100881.88;;;-2.29;100.00
57668;BME280;43499;52.366;12.912;2022-11-20T01:26:03;100892.41;;;-2.28;100.00
57668;BME280;43499;52.366;12.912;2022-11-20T01:27:05;100892.94;;;-2.30;100.00
57668;BME280;43499;52.366;12.912;2022-11-20T01:28:06;100865.53;;;-2.43;100.00
57668;BME280;43499;52.366;12.912;2022-11-20T01:29:13;100871.59;;;-2.42;100.00
57668;BME280;43499;52.366;12.912;2022-11-20T01:30:14;100877.34;;;-2.38;100.00
57668;BME280;43499;52.366;12.912;2022-11-20T01:32:21;100892.94;;;-2.30;100.00
57668;BME280;43499;52.366;12.912;2022-11-20T01:33:23;100859.34;;;-2.51;100.00
57668;BME280;43499;52.366;12.912;2022-11-20T01:34:24;100882.50;;;-2.38;100.00
57668;BME280;43499;52.366;12.912;2022-11-20T01:35:25;100884.25;;;-2.31;100.00
57668;BME280;43499;52.366;12.912;2022-11-20T01:36:29;100889.84;;;-2.28;100.00
57668;BME280;43499;52.366;12.912;2022-11-20T01:37:30;100889.31;;;-2.25;100.00
57668;BME280;43499;52.366;12.912;2022-11-20T01:38:31;100887.44;;;-2.26;100.00
57668;BME280;43499;52.366;12.912;2022-11-20T01:39:32;100871.19;;;-2.33;100.00
57668;BME280;43499;52.366;12.912;2022-11-20T01:40:33;100882.28;;;-2.26;100.00
57668;BME280;43499;52.366;12.912;2022-11-20T01:41:34;100861.00;;;-2.38;100.00
57668;BME280;43499;52.366;12.912;2022-11-20T01:43:09;100861.72;;;-2.39;100.00
57668;BME280;43499;52.366;12.912;2022-11-20T01:44:47;100893.31;;;-2.27;100.00
57668;BME280;43499;52.366;12.912;2022-11-20T01:46:16;100871.69;;;-2.35;100.00
57668;BME280;43499;52.366;12.912;2022-11-20T01:47:40;100868.84;;;-2.44;100.00
57668;BME280;43499;52.366;12.912;2022-11-20T01:48:49;100873.03;;;-2.44;100.00
57668;BME280;43499;52.366;12.912;2022-11-20T01:50:23;100881.25;;;-2.34;100.00
57668;BME280;43499;52.366;12.912;2022-11-20T01:51:46;100879.22;;;-2.37;100.00
57668;BME280;43499;52.366;12.912;2022-11-20T01:52:55;100874.38;;;-2.41;100.00
57668;BME280;43499;52.366;12.912;2022-11-20T01:54:00;100875.13;;;-2.42;100.00
57668;BME280;43499;52.366;12.912;2022-11-20T01:55:13;100847.84;;;-2.60;100.00
57668;BME280;43499;52.366;12.912;2022-11-20T01:56:15;100864.69;;;-2.49;100.00
57668;BME280;43499;52.366;12.912;2022-11-20T01:57:18;100852.97;;;-2.60;100.00
57668;BME280;43499;52.366;12.912;2022-11-20T01:58:23;100872.53;;;-2.55;100.00
57668;BME280;43499;52.366;12.912;2022-11-20T01:59:26;100865.94;;;-2.53;100.00
57668;BME280;43499;52.366;12.912;2022-11-20T02:00:29;100875.31;;;-2.53;100.00
57668;BME280;43499;52.366;12.912;2022-11-20T02:01:30;100864.59;;;-2.56;100.00
57668;BME280;43499;52.366;12.912;2022-11-20T02:02:31;100868.41;;;-2.47;100.00
57668;BME280;43499;52.366;12.912;2022-11-20T02:03:32;100847.72;;;-2.54;100.00
57668;BME280;43499;52.366;12.912;2022-11-20T02:04:33;100863.25;;;-2.47;100.00
57668;BME280;43499;52.366;12.912;2022-11-20T02:06:02;100865.31;;;-2.44;100.00
57668;BME280;43499;52.366;12.912;2022-11-20T02:07:04;100863.44;;;-2.45;100.00
57668;BME280;43499;52.366;12.912;2022-11-20T02:08:06;100856.44;;;-2.46;100.00
57668;BME280;43499;52.366;12.912;2022-11-20T02:09:08;100858.13;;;-2.47;100.00
57668;BME280;43499;52.366;12.912;2022-11-20T02:10:09;100833.50;;;-2.58;100.00
57668;BME280;43499;52.366;12.912;2022-11-20T02:11:10;100860.88;;;-2.45;100.00
57668;BME280;43499;52.366;12.912;2022-11-20T02:12:13;100847.63;;;-2.49;100.00
57668;BME280;43499;52.366;12.912;2022-11-20T02:13:34;100854.41;;;-2.49;100.00
57668;BME280;43499;52.366;12.912;2022-11-20T02:14:44;100855.84;;;-2.51;100.00
57668;BME280;43499;52.366;12.912;2022-11-20T02:15:46;100856.78;;;-2.51;100.00
57668;BME280;43499;52.366;12.912;2022-11-20T02:16:48;100835.88;;;-2.59;100.00
57668;BME280;43499;52.366;12.912;2022-11-20T02:17:50;100840.91;;;-2.54;100.00
57668;BME280;43499;52.366;12.912;2022-11-20T02:18:52;100852.34;;;-2.52;100.00
57668;BME280;43499;52.366;12.912;2022-11-20T02:19:54;100820.53;;;-2.65;100.00
57668;BME280;43499;52.366;12.912;2022-11-20T02:21:09;100822.19;;;-2.66;100.00
57668;BME280;43499;52.366;12.912;2022-11-20T02:22:31;100837.94;;;-2.57;100.00
57668;BME280;43499;52.366;12.912;2022-11-20T02:23:58;100838.16;;;-2.55;100.00
57668;BME280;43499;52.366;12.912;2022-11-20T02:25:01;100839.28;;;-2.53;100.00
57668;BME280;43499;52.366;12.912;2022-11-20T02:26:06;100845.53;;;-2.51;100.00
57668;BME280;43499;52.366;12.912;2022-11-20T02:27:12;100851.09;;;-2.48;100.00
57668;BME280;43499;52.366;12.912;2022-11-20T02:28:13;100845.78;;;-2.50;100.00
57668;BME280;43499;52.366;12.912;2022-11-20T02:29:18;100828.25;;;-2.65;100.00
57668;BME280;43499;52.366;12.912;2022-11-20T02:30:20;100847.94;;;-2.53;100.00
57668;BME280;43499;52.366;12.912;2022-11-20T02:31:21;100837.22;;;-2.56;100.00
57668;BME280;43499;52.366;12.912;2022-11-20T02:32:26;100849.34;;;-2.55;100.00
57668;BME280;43499;52.366;12.912;2022-11-20T02:33:27;100837.13;;;-2.63;100.00
57668;BME280;43499;52.366;12.912;2022-11-20T02:34:28;100844.53;;;-2.59;100.00
57668;BME280;43499;52.366;12.912;2022-11-20T02:36:31;100835.16;;;-2.58;100.00
57668;BME280;43499;52.366;12.912;2022-11-20T02:37:37;100845.34;;;-2.53;100.00
57668;BME280;43499;52.366;12.912;2022-11-20T02:38:39;100839.59;;;-2.57;100.00
57668;BME280;43499;52.366;12.912;2022-11-20T02:39:41;100848.53;;;-2.48;100.00
57668;BME280;43499;52.366;12.912;2022-11-20T02:40:42;100799.34;;;-2.70;100.00
57668;BME280;43499;52.366;12.912;2022-11-20T02:41:43;100845.66;;;-2.44;100.00
57668;BME280;43499;52.366;12.912;2022-11-20T02:42:44;100826.63;;;-2.52;100.00
57668;BME280;43499;52.366;12.912;2022-11-20T02:43:46;100843.69;;;-2.39;100.00
57668;BME280;43499;52.366;12.912;2022-11-20T02:44:47;100822.38;;;-2.51;100.00
57668;BME280;43499;52.366;12.912;2022-11-20T02:45:48;100850.59;;;-2.33;100.00
57668;BME280;43499;52.366;12.912;2022-11-20T02:46:49;100830.41;;;-2.42;100.00
57668;BME280;43499;52.366;12.912;2022-11-20T02:47:50;100844.41;;;-2.27;100.00
57668;BME280;43499;52.366;12.912;2022-11-20T02:48:52;100841.63;;;-2.29;100.00
57668;BME280;43499;52.366;12.912;2022-11-20T02:49:53;100833.28;;;-2.34;100.00
57668;BME280;43499;52.366;12.912;2022-11-20T02:50:54;100825.88;;;-2.38;100.00
57668;BME280;43499;52.366;12.912;2022-11-20T02:51:55;100845.34;;;-2.27;100.00
57668;BME280;43499;52.366;12.912;2022-11-20T02:52:56;100832.16;;;-2.36;100.00
57668;BME280;43499;52.366;12.912;2022-11-20T02:53:57;100841.22;;;-2.32;100.00
57668;BME280;43499;52.366;12.912;2022-11-20T02:54:58;100848.09;;;-2.25;100.00
57668;BME280;43499;52.366;12.912;2022-11-20T02:55:59;100842.78;;;-2.27;100.00
57668;BME280;43499;52.366;12.912;2022-11-20T02:57:00;100822.38;;;-2.38;100.00
57668;BME280;43499;52.366;12.912;2022-11-20T02:58:01;100845.53;;;-2.25;100.00
57668;BME280;43499;52.366;12.912;2022-11-20T02:59:02;100845.53;;;-2.25;100.00
57668;BME280;43499;52.366;12.912;2022-11-20T03:00:04;100839.47;;;-2.26;100.00
57668;BME280;43499;52.366;12.912;2022-11-20T03:01:05;100832.25;;;-2.28;100.00
57668;BME280;43499;52.366;12.912;2022-11-20T03:02:06;100801.56;;;-2.40;100.00
57668;BME280;43499;52.366;12.912;2022-11-20T03:03:07;100827.31;;;-2.27;100.00
57668;BME280;43499;52.366;12.912;2022-11-20T03:04:08;100823.59;;;-2.29;100.00
57668;BME280;43499;52.366;12.912;2022-11-20T03:05:09;100805.88;;;-2.33;100.00
57668;BME280;43499;52.366;12.912;2022-11-20T03:06:11;100831.63;;;-2.20;100.00
57668;BME280;43499;52.366;12.912;2022-11-20T03:07:12;100832.75;;;-2.18;100.00
57668;BME280;43499;52.366;12.912;2022-11-20T03:08:13;100823.50;;;-2.23;100.00
57668;BME280;43499;52.366;12.912;2022-11-20T03:09:14;100809.59;;;-2.31;100.00
57668;BME280;43499;52.366;12.912;2022-11-20T03:10:15;100833.69;;;-2.18;100.00
57668;BME280;43499;52.366;12.912;2022-11-20T03:11:16;100830.16;;;-2.18;100.00
57668;BME280;43499;52.366;12.912;2022-11-20T03:12:17;100836.44;;;-2.16;100.00
57668;BME280;43499;52.366;12.912;2022-11-20T03:13:19;100815.88;;;-2.29;100.00
57668;BME280;43499;52.366;12.912;2022-11-20T03:14:20;100811.16;;;-2.26;100.00
57668;BME280;43499;52.366;12.912;2022-11-20T03:15:25;100829.13;;;-2.13;100.00
57668;BME280;43499;52.366;12.912;2022-11-20T03:16:26;100800.50;;;-2.22;100.00
57668;BME280;43499;52.366;12.912;2022-11-20T03:17:27;100813.91;;;-2.24;100.00
57668;BME280;43499;52.366;12.912;2022-11-20T03:18:28;100796.19;;;-2.28;100.00
57668;BME280;43499;52.366;12.912;2022-11-20T03:19:29;100820.09;;;-2.17;100.00
57668;BME280;43499;52.366;12.912;2022-11-20T03:20:32;100823.06;;;-2.13;100.00
57668;BME280;43499;52.366;12.912;2022-11-20T03:21:34;100782.34;;;-2.36;100.00
57668;BME280;43499;52.366;12.912;2022-11-20T03:22:35;100805.16;;;-2.19;100.00
57668;BME280;43499;52.366;12.912;2022-11-20T03:23:37;100820.50;;;-2.13;100.00
57668;BME280;43499;52.366;12.912;2022-11-20T03:24:38;100814.94;;;-2.17;100.00
57668;BME280;43499;52.366;12.912;2022-11-20T03:25:40;100821.22;;;-2.14;100.00
57668;BME280;43499;52.366;12.912;2022-11-20T03:26:41;100800.50;;;-2.22;100.00
57668;BME280;43499;52.366;12.912;2022-11-20T03:27:42;100797.34;;;-2.26;100.00
57668;BME280;43499;52.366;12.912;2022-11-20T03:28:56;100804.22;;;-2.20;100.00
57668;BME280;43499;52.366;12.912;2022-11-20T03:29:58;100811.31;;;-2.11;100.00
57668;BME280;43499;52.366;12.912;2022-11-20T03:31:08;100792.91;;;-2.27;100.00
57668;BME280;43499;52.366;12.912;2022-11-20T03:32:09;100825.00;;;-2.05;100.00
57668;BME280;43499;52.366;12.912;2022-11-20T03:33:10;100793.00;;;-2.20;100.00
57668;BME280;43499;52.366;12.912;2022-11-20T03:34:11;100817.28;;;-2.05;100.00
57668;BME280;43499;52.366;12.912;2022-11-20T03:35:12;100814.16;;;-2.03;100.00
57668;BME280;43499;52.366;12.912;2022-11-20T03:36:15;100797.50;;;-2.12;100.00
57668;BME280;43499;52.366;12.912;2022-11-20T03:37:16;100798.13;;;-2.07;100.00
57668;BME280;43499;52.366;12.912;2022-11-20T03:38:17;100801.47;;;-2.01;100.00
57668;BME280;43499;52.366;12.912;2022-11-20T03:39:18;100805.78;;;-1.94;100.00
57668;BME280;43499;52.366;12.912;2022-11-20T03:40:19;100793.38;;;-2.04;100.00
57668;BME280;43499;52.366;12.912;2022-11-20T03:41:23;100806.31;;;-1.97;100.00
57668;BME280;43499;52.366;12.912;2022-11-20T03:42:24;100808.38;;;-1.94;100.00
57668;BME280;43499;52.366;12.912;2022-11-20T03:43:55;100810.22;;;-1.93;100.00
57668;BME280;43499;52.366;12.912;2022-11-20T03:44:56;100792.84;;;-2.02;100.00
57668;BME280;43499;52.366;12.912;2022-11-20T03:45:57;100807.66;;;-1.93;100.00
57668;BME280;43499;52.366;12.912;2022-11-20T03:46:58;100804.47;;;-1.98;100.00
57668;BME280;43499;52.366;12.912;2022-11-20T03:47:59;100811.34;;;-1.91;100.00
57668;BME280;43499;52.366;12.912;2022-11-20T03:49:01;100804.75;;;-1.89;100.00
57668;BME280;43499;52.366;12.912;2022-11-20T03:50:03;100792.91;;;-1.94;100.00
57668;BME280;43499;52.366;12.912;2022-11-20T03:51:25;100806.81;;;-1.87;100.00
57668;BME280;43499;52.366;12.912;2022-11-20T03:52:27;100804.44;;;-1.85;100.00
57668;BME280;43499;52.366;12.912;2022-11-20T03:53:28;100801.47;;;-1.88;100.00
57668;BME280;43499;52.366;12.912;2022-11-20T03:54:29;100778.31;;;-2.01;100.00
57668;BME280;43499;52.366;12.912;2022-11-20T03:55:30;100807.22;;;-1.83;100.00
57668;BME280;43499;52.366;12.912;2022-11-20T03:56:34;100799.31;;;-1.85;100.00
57668;BME280;43499;52.366;12.912;2022-11-20T03:57:35;100799.59;;;-1.89;100.00
57668;BME280;43499;52.366;12.912;2022-11-20T03:58:39;100786.84;;;-1.95;100.00
57668;BME280;43499;52.366;12.912;2022-11-20T03:59:41;100793.00;;;-1.87;100.00
57668;BME280;43499;52.366;12.912;2022-11-20T04:00:42;100807.22;;;-1.83;100.00
57668;BME280;43499;52.366;12.912;2022-11-20T04:01:43;100799.47;;;-1.83;100.00
57668;BME280;43499;52.366;12.912;2022-11-20T04:02:44;100803.19;;;-1.81;100.00
57668;BME280;43499;52.366;12.912;2022-11-20T04:03:45;100808.00;;;-1.77;100.00
57668;BME280;43499;52.366;12.912;2022-11-20T04:04:46;100803.91;;;-1.82;100.00
57668;BME280;43499;52.366;12.912;2022-11-20T04:05:47;100812.44;;;-1.76;100.00
57668;BME280;43499;52.366;12.912;2022-11-20T04:06:48;100787.44;;;-1.90;100.00
57668;BME280;43499;52.366;12.912;2022-11-20T04:07:49;100787.84;;;-1.87;100.00
57668;BME280;43499;52.366;12.912;2022-11-20T04:08:50;100793.63;;;-1.82;100.00
57668;BME280;43499;52.366;12.912;2022-11-20T04:09:52;100806.16;;;-1.78;100.00
57668;BME280;43499;52.366;12.912;2022-11-20T04:10:53;100798.03;;;-1.81;100.00
57668;BME280;43499;52.366;12.912;2022-11-20T04:11:54;100797.81;;;-1.83;100.00
57668;BME280;43499;52.366;12.912;2022-11-20T04:12:55;100798.03;;;-1.81;100.00
57668;BME280;43499;52.366;12.912;2022-11-20T04:14:01;100792.66;;;-1.83;100.00
57668;BME280;43499;52.366;12.912;2022-11-20T04:15:02;100791.94;;;-1.82;100.00
57668;BME280;43499;52.366;12.912;2022-11-20T04:16:05;100801.94;;;-1.78;100.00
57668;BME280;43499;52.366;12.912;2022-11-20T04:17:06;100782.31;;;-1.90;100.00
57668;BME280;43499;52.366;12.912;2022-11-20T04:18:07;100779.91;;;-1.89;100.00
57668;BME280;43499;52.366;12.912;2022-11-20T04:19:14;100797.69;;;-1.77;100.00
57668;BME280;43499;52.366;12.912;2022-11-20T04:20:15;100793.63;;;-1.82;100.00
57668;BME280;43499;52.366;12.912;2022-11-20T04:21:16;100780.84;;;-1.88;100.00
57668;BME280;43499;52.366;12.912;2022-11-20T04:22:17;100781.56;;;-1.89;100.00
57668;BME280;43499;52.366;12.912;2022-11-20T04:23:18;100801.75;;;-1.79;100.00
57668;BME280;43499;52.366;12.912;2022-11-20T04:24:19;100792.22;;;-1.73;100.00
57668;BME280;43499;52.366;12.912;2022-11-20T04:25:20;100796.06;;;-1.77;100.00
57668;BME280;43499;52.366;12.912;2022-11-20T04:26:24;100800.91;;;-1.73;100.00
57668;BME280;43499;52.366;12.912;2022-11-20T04:27:25;100794.53;;;-1.82;100.00
57668;BME280;43499;52.366;12.912;2022-11-20T04:28:26;100808.94;;;-1.77;100.00
57668;BME280;43499;52.366;12.912;2022-11-20T04:29:27;100808.63;;;-1.73;100.00
57668;BME280;43499;52.366;12.912;2022-11-20T04:30:28;100791.44;;;-1.79;100.00
57668;BME280;43499;52.366;12.912;2022-11-20T04:31:31;100784.94;;;-1.83;100.00
57668;BME280;43499;52.366;12.912;2022-11-20T04:32:32;100803.25;;;-1.74;100.00
57668;BME280;43499;52.366;12.912;2022-11-20T04:33:34;100803.97;;;-1.75;100.00
57668;BME280;43499;52.366;12.912;2022-11-20T04:34:36;100806.78;;;-1.74;100.00
57668;BME280;43499;52.366;12.912;2022-11-20T04:35:37;100805.31;;;-1.72;100.00
57668;BME280;43499;52.366;12.912;2022-11-20T04:36:38;100791.94;;;-1.82;100.00
57668;BME280;43499;52.366;12.912;2022-11-20T04:37:39;100804.50;;;-1.78;100.00
57668;BME280;43499;52.366;12.912;2022-11-20T04:38:41;100780.84;;;-1.88;100.00
57668;BME280;43499;52.366;12.912;2022-11-20T04:39:42;100796.25;;;-1.75;100.00
57668;BME280;43499;52.366;12.912;2022-11-20T04:40:43;100804.69;;;-1.76;100.00
57668;BME280;43499;52.366;12.912;2022-11-20T04:41:44;100783.50;;;-1.81;100.00
57668;BME280;43499;52.366;12.912;2022-11-20T04:42:45;100803.66;;;-1.71;100.00
57668;BME280;43499;52.366;12.912;2022-11-20T04:43:47;100804.38;;;-1.72;100.00
57668;BME280;43499;52.366;12.912;2022-11-20T04:44:51;100787.78;;;-1.74;100.00
57668;BME280;43499;52.366;12.912;2022-11-20T04:45:54;100787.91;;;-1.80;100.00
57668;BME280;43499;52.366;12.912;2022-11-20T04:46:55;100800.38;;;-1.70;100.00
57668;BME280;43499;52.366;12.912;2022-11-20T04:47:56;100778.22;;;-1.75;100.00
57668;BME280;43499;52.366;12.912;2022-11-20T04:48:57;100787.25;;;-1.72;100.00
57668;BME280;43499;52.366;12.912;2022-11-20T04:49:58;100791.69;;;-1.71;100.00
57668;BME280;43499;52.366;12.912;2022-11-20T04:51:02;100797.44;;;-1.66;100.00
57668;BME280;43499;52.366;12.912;2022-11-20T04:52:03;100797.66;;;-1.64;100.00
57668;BME280;43499;52.366;12.912;2022-11-20T04:53:05;100791.38;;;-1.66;100.00
57668;BME280;43499;52.366;12.912;2022-11-20T04:54:06;100779.53;;;-1.72;100.00
57668;BME280;43499;52.366;12.912;2022-11-20T04:55:07;100784.69;;;-1.72;100.00
57668;BME280;43499;52.366;12.912;2022-11-20T04:56:10;100779.53;;;-1.72;100.00
57668;BME280;43499;52.366;12.912;2022-11-20T04:57:12;100792.09;;;-1.67;100.00
57668;BME280;43499;52.366;12.912;2022-11-20T04:58:14;100796.34;;;-1.68;100.00
57668;BME280;43499;52.366;12.912;2022-11-20T04:59:16;100792.28;;;-1.66;100.00
57668;BME280;43499;52.366;12.912;2022-11-20T05:00:17;100779.34;;;-1.73;100.00
57668;BME280;43499;52.366;12.912;2022-11-20T05:01:22;100798.19;;;-1.67;100.00
57668;BME280;43499;52.366;12.912;2022-11-20T05:02:24;100776.03;;;-1.72;100.00
57668;BME280;43499;52.366;12.912;2022-11-20T05:03:25;100773.66;;;-1.71;100.00
57668;BME280;43499;52.366;12.912;2022-11-20T05:04:26;100777.72;;;-1.73;100.00
57668;BME280;43499;52.366;12.912;2022-11-20T05:05:27;100783.47;;;-1.68;100.00
57668;BME280;43499;52.366;12.912;2022-11-20T05:06:28;100781.97;;;-1.66;100.00
57668;BME280;43499;52.366;12.912;2022-11-20T05:07:29;100784.91;;;-1.70;100.00
57668;BME280;43499;52.366;12.912;2022-11-20T05:08:31;100790.47;;;-1.67;100.00
57668;BME280;43499;52.366;12.912;2022-11-20T05:09:32;100789.72;;;-1.66;100.00
57668;BME280;43499;52.366;12.912;2022-11-20T05:10:33;100786.03;;;-1.68;100.00
57668;BME280;43499;52.366;12.912;2022-11-20T05:11:35;100782.78;;;-1.80;100.00
57668;BME280;43499;52.366;12.912;2022-11-20T05:12:36;100788.38;;;-1.69;100.00
57668;BME280;43499;52.366;12.912;2022-11-20T05:13:37;100783.25;;;-1.69;100.00
57668;BME280;43499;52.366;12.912;2022-11-20T05:14:38;100759.75;;;-1.78;100.00
57668;BME280;43499;52.366;12.912;2022-11-20T05:15:39;100764.53;;;-1.81;100.00
57668;BME280;43499;52.366;12.912;2022-11-20T05:16:40;100774.72;;;-1.76;100.00
57668;BME280;43499;52.366;12.912;2022-11-20T05:17:51;100755.09;;;-1.88;100.00
57668;BME280;43499;52.366;12.912;2022-11-20T05:18:53;100783.78;;;-1.72;100.00
57668;BME280;43499;52.366;12.912;2022-11-20T05:19:55;100764.72;;;-1.80;100.00
57668;BME280;43499;52.366;12.912;2022-11-20T05:20:57;100776.34;;;-1.76;100.00
57668;BME280;43499;52.366;12.912;2022-11-20T05:21:58;100777.31;;;-1.76;100.00
57668;BME280;43499;52.366;12.912;2022-11-20T05:22:59;100764.31;;;-1.83;100.00